sensor_id;sensor_type;location;lat;lon;timestamp;pressure;altitude;pressure_sealevel;temperature;humidity
48630;BME280;34426;52.180;4.462;2023-04-27T00:00:12;102244.13;;;4.00;83.34
48630;BME280;34426;52.180;4.462;2023-04-27T00:02:38;102230.97;;;4.03;83.64
48630;BME280;34426;52.180;4.462;2023-04-27T00:05:05;102232.38;;;3.98;83.23
48630;BME280;34426;52.180;4.462;2023-04-27T00:07:31;102233.66;;;3.81;83.79
48630;BME280;34426;52.180;4.462;2023-04-27T00:09:57;102234.69;;;3.80;85.00
48630;BME280;34426;52.180;4.462;2023-04-27T00:12:23;102233.72;;;3.73;84.31
48630;BME280;34426;52.180;4.462;2023-04-27T00:14:52;102230.28;;;3.71;85.31
48630;BME280;34426;52.180;4.462;2023-04-27T00:17:17;102227.53;;;3.71;84.88
48630;BME280;34426;52.180;4.462;2023-04-27T00:19:43;102224.09;;;3.69;84.80
48630;BME280;34426;52.180;4.462;2023-04-27T00:22:13;102230.66;;;3.68;85.37
48630;BME280;34426;52.180;4.462;2023-04-27T00:24:39;102230.59;;;3.76;85.34
48630;BME280;34426;52.180;4.462;2023-04-27T00:27:05;102230.97;;;3.73;84.89
48630;BME280;34426;52.180;4.462;2023-04-27T00:29:30;102218.75;;;3.67;85.61
48630;BME280;34426;52.180;4.462;2023-04-27T00:31:56;102226.28;;;3.74;85.58
48630;BME280;34426;52.180;4.462;2023-04-27T00:34:21;102226.47;;;3.72;85.53
48630;BME280;34426;52.180;4.462;2023-04-27T00:36:47;102222.47;;;3.75;85.70
48630;BME280;34426;52.180;4.462;2023-04-27T00:39:14;102220.75;;;3.74;85.37
48630;BME280;34426;52.180;4.462;2023-04-27T00:41:40;102223.22;;;3.68;85.46
48630;BME280;34426;52.180;4.462;2023-04-27T00:44:05;102223.50;;;3.59;86.30
48630;BME280;34426;52.180;4.462;2023-04-27T00:46:31;102218.72;;;3.53;86.55
48630;BME280;34426;52.180;4.462;2023-04-27T00:48:57;102213.78;;;3.63;86.57
48630;BME280;34426;52.180;4.462;2023-04-27T00:51:23;102213.78;;;3.63;85.95
48630;BME280;34426;52.180;4.462;2023-04-27T00:53:50;102218.03;;;3.51;85.83
48630;BME280;34426;52.180;4.462;2023-04-27T00:56:18;102218.03;;;3.51;86.29
48630;BME280;34426;52.180;4.462;2023-04-27T00:58:44;102224.63;;;3.50;87.14
48630;BME280;34426;52.180;4.462;2023-04-27T01:01:10;102224.34;;;3.45;86.85
48630;BME280;34426;52.180;4.462;2023-04-27T01:03:36;102227.13;;;3.45;86.62
48630;BME280;34426;52.180;4.462;2023-04-27T01:06:12;102233.97;;;3.49;86.89
48630;BME280;34426;52.180;4.462;2023-04-27T01:08:41;102229.03;;;3.44;86.31
48630;BME280;34426;52.180;4.462;2023-04-27T01:11:19;102222.81;;;3.42;86.61
48630;BME280;34426;52.180;4.462;2023-04-27T01:13:45;102224.78;;;3.33;87.15
48630;BME280;34426;52.180;4.462;2023-04-27T01:16:12;102214.72;;;3.41;87.36
48630;BME280;34426;52.180;4.462;2023-04-27T01:18:38;102214.47;;;3.27;87.33
48630;BME280;34426;52.180;4.462;2023-04-27T01:21:04;102210.84;;;3.27;87.98
48630;BME280;34426;52.180;4.462;2023-04-27T01:23:34;102213.72;;;3.33;87.36
48630;BME280;34426;52.180;4.462;2023-04-27T01:26:00;102203.03;;;3.30;87.65
48630;BME280;34426;52.180;4.462;2023-04-27T01:28:27;102202.47;;;3.35;87.49
48630;BME280;34426;52.180;4.462;2023-04-27T01:30:53;102194.69;;;3.39;87.06
48630;BME280;34426;52.180;4.462;2023-04-27T01:33:18;102196.78;;;3.37;87.20
48630;BME280;34426;52.180;4.462;2023-04-27T01:35:44;102184.00;;;3.36;86.76
48630;BME280;34426;52.180;4.462;2023-04-27T01:38:09;102187.44;;;3.38;87.03
48630;BME280;34426;52.180;4.462;2023-04-27T01:40:37;102182.28;;;3.34;87.13
48630;BME280;34426;52.180;4.462;2023-04-27T01:43:02;102180.56;;;3.33;86.99
48630;BME280;34426;52.180;4.462;2023-04-27T01:45:28;102181.31;;;3.27;87.02
48630;BME280;34426;52.180;4.462;2023-04-27T01:47:56;102185.47;;;3.23;87.07
48630;BME280;34426;52.180;4.462;2023-04-27T01:50:22;102186.91;;;3.19;87.22
48630;BME280;34426;52.180;4.462;2023-04-27T01:52:47;102193.47;;;3.18;87.16
48630;BME280;34426;52.180;4.462;2023-04-27T01:55:13;102190.03;;;3.16;87.28
48630;BME280;34426;52.180;4.462;2023-04-27T01:57:40;102193.34;;;3.12;87.04
48630;BME280;34426;52.180;4.462;2023-04-27T02:00:09;102192.13;;;3.14;87.66
48630;BME280;34426;52.180;4.462;2023-04-27T02:02:35;102188.19;;;3.09;87.86
48630;BME280;34426;52.180;4.462;2023-04-27T02:05:01;102178.69;;;3.11;88.16
48630;BME280;34426;52.180;4.462;2023-04-27T02:07:30;102181.44;;;3.11;88.07
48630;BME280;34426;52.180;4.462;2023-04-27T02:09:55;102180.59;;;3.11;87.75
48630;BME280;34426;52.180;4.462;2023-04-27T02:12:20;102187.72;;;3.05;87.67
48630;BME280;34426;52.180;4.462;2023-04-27T02:14:47;102180.09;;;3.07;87.95
48630;BME280;34426;52.180;4.462;2023-04-27T02:17:13;102172.00;;;3.06;88.33
48630;BME280;34426;52.180;4.462;2023-04-27T02:19:38;102171.13;;;3.05;88.21
48630;BME280;34426;52.180;4.462;2023-04-27T02:22:04;102173.63;;;3.00;88.32
48630;BME280;34426;52.180;4.462;2023-04-27T02:24:30;102178.00;;;3.09;88.62
48630;BME280;34426;52.180;4.462;2023-04-27T02:27:03;102178.88;;;3.10;88.77
48630;BME280;34426;52.180;4.462;2023-04-27T02:29:29;102179.22;;;3.07;88.57
48630;BME280;34426;52.180;4.462;2023-04-27T02:31:57;102163.25;;;3.02;89.02
48630;BME280;34426;52.180;4.462;2023-04-27T02:34:22;102167.72;;;3.03;88.83
48630;BME280;34426;52.180;4.462;2023-04-27T02:36:48;102165.22;;;3.08;89.15
48630;BME280;34426;52.180;4.462;2023-04-27T02:39:13;102167.13;;;3.08;88.63
48630;BME280;34426;52.180;4.462;2023-04-27T02:41:39;102172.09;;;3.12;88.89
48630;BME280;34426;52.180;4.462;2023-04-27T02:44:05;102169.03;;;3.07;89.22
48630;BME280;34426;52.180;4.462;2023-04-27T02:46:31;102166.56;;;3.12;89.05
48630;BME280;34426;52.180;4.462;2023-04-27T02:49:01;102172.97;;;3.13;88.87
48630;BME280;34426;52.180;4.462;2023-04-27T02:51:26;102173.44;;;3.16;88.62
48630;BME280;34426;52.180;4.462;2023-04-27T02:53:52;102181.06;;;3.14;89.00
48630;BME280;34426;52.180;4.462;2023-04-27T02:56:18;102181.06;;;3.14;89.22
48630;BME280;34426;52.180;4.462;2023-04-27T02:58:46;102179.16;;;3.15;89.25
48630;BME280;34426;52.180;4.462;2023-04-27T03:01:13;102185.19;;;3.18;88.54
48630;BME280;34426;52.180;4.462;2023-04-27T03:03:39;102187.94;;;3.18;88.87
48630;BME280;34426;52.180;4.462;2023-04-27T03:06:06;102187.81;;;3.12;89.06
48630;BME280;34426;52.180;4.462;2023-04-27T03:08:32;102186.09;;;3.11;88.62
48630;BME280;34426;52.180;4.462;2023-04-27T03:11:00;102189.84;;;3.03;88.20
48630;BME280;34426;52.180;4.462;2023-04-27T03:13:26;102189.16;;;3.01;88.87
48630;BME280;34426;52.180;4.462;2023-04-27T03:15:52;102189.06;;;3.09;88.63
48630;BME280;34426;52.180;4.462;2023-04-27T03:18:17;102183.53;;;3.09;88.14
48630;BME280;34426;52.180;4.462;2023-04-27T03:20:46;102185.63;;;3.07;88.39
48630;BME280;34426;52.180;4.462;2023-04-27T03:23:16;102189.16;;;3.01;88.23
48630;BME280;34426;52.180;4.462;2023-04-27T03:25:41;102184.19;;;2.96;88.36
48630;BME280;34426;52.180;4.462;2023-04-27T03:28:10;102185.03;;;2.97;88.22
48630;BME280;34426;52.180;4.462;2023-04-27T03:30:38;102184.56;;;3.08;87.76
48630;BME280;34426;52.180;4.462;2023-04-27T03:33:04;102183.03;;;3.06;88.02
48630;BME280;34426;52.180;4.462;2023-04-27T03:35:29;102180.09;;;3.07;87.56
48630;BME280;34426;52.180;4.462;2023-04-27T03:37:55;102178.97;;;3.16;87.62
48630;BME280;34426;52.180;4.462;2023-04-27T03:40:22;102177.63;;;3.12;87.54
48630;BME280;34426;52.180;4.462;2023-04-27T03:42:47;102182.66;;;3.09;87.26
48630;BME280;34426;52.180;4.462;2023-04-27T03:45:13;102176.00;;;3.03;88.11
48630;BME280;34426;52.180;4.462;2023-04-27T03:47:38;102194.09;;;3.06;87.37
48630;BME280;34426;52.180;4.462;2023-04-27T03:50:05;102189.63;;;3.05;87.80
48630;BME280;34426;52.180;4.462;2023-04-27T03:52:32;102194.97;;;3.06;87.72
48630;BME280;34426;52.180;4.462;2023-04-27T03:54:58;102194.69;;;3.01;87.41
48630;BME280;34426;52.180;4.462;2023-04-27T03:57:24;102195.34;;;3.03;88.04
48630;BME280;34426;52.180;4.462;2023-04-27T03:59:50;102195.81;;;3.07;87.92
48630;BME280;34426;52.180;4.462;2023-04-27T04:02:18;102184.75;;;3.07;87.82
48630;BME280;34426;52.180;4.462;2023-04-27T04:04:44;102204.75;;;2.94;87.66
48630;BME280;34426;52.180;4.462;2023-04-27T04:07:11;102204.06;;;2.92;87.90
48630;BME280;34426;52.180;4.462;2023-04-27T04:09:37;102203.59;;;2.88;87.72
48630;BME280;34426;52.180;4.462;2023-04-27T04:12:06;102209.97;;;2.89;87.85
48630;BME280;34426;52.180;4.462;2023-04-27T04:14:33;102218.81;;;2.84;87.58
48630;BME280;34426;52.180;4.462;2023-04-27T04:16:58;102213.78;;;2.88;87.99
48630;BME280;34426;52.180;4.462;2023-04-27T04:19:26;102215.88;;;2.86;87.51
48630;BME280;34426;52.180;4.462;2023-04-27T04:21:52;102213.78;;;2.88;88.00
48630;BME280;34426;52.180;4.462;2023-04-27T04:24:17;102212.56;;;2.90;88.14
48630;BME280;34426;52.180;4.462;2023-04-27T04:26:43;102221.03;;;2.89;87.93
48630;BME280;34426;52.180;4.462;2023-04-27T04:29:11;102222.25;;;2.86;87.76
48630;BME280;34426;52.180;4.462;2023-04-27T04:31:38;102226.72;;;2.87;87.59
48630;BME280;34426;52.180;4.462;2023-04-27T04:34:03;102228.88;;;3.00;87.47
48630;BME280;34426;52.180;4.462;2023-04-27T04:36:39;102229.34;;;3.04;87.39
48630;BME280;34426;52.180;4.462;2023-04-27T04:39:05;102236.22;;;3.08;87.23
48630;BME280;34426;52.180;4.462;2023-04-27T04:41:30;102229.34;;;3.04;87.18
48630;BME280;34426;52.180;4.462;2023-04-27T04:43:59;102234.88;;;3.04;87.37
48630;BME280;34426;52.180;4.462;2023-04-27T04:46:24;102231.75;;;3.07;87.17
48630;BME280;34426;52.180;4.462;2023-04-27T04:48:51;102241.75;;;3.08;87.12
48630;BME280;34426;52.180;4.462;2023-04-27T04:51:17;102238.44;;;3.12;87.20
48630;BME280;34426;52.180;4.462;2023-04-27T04:53:42;102229.84;;;3.07;87.06
48630;BME280;34426;52.180;4.462;2023-04-27T04:56:08;102234.63;;;3.13;86.97
48630;BME280;34426;52.180;4.462;2023-04-27T04:58:34;102233.28;;;3.09;86.35
48630;BME280;34426;52.180;4.462;2023-04-27T05:01:00;102229.78;;;3.15;87.07
48630;BME280;34426;52.180;4.462;2023-04-27T05:03:25;102228.75;;;3.16;87.00
48630;BME280;34426;52.180;4.462;2023-04-27T05:05:52;102227.88;;;3.16;87.19
48630;BME280;34426;52.180;4.462;2023-04-27T05:08:18;102231.81;;;3.21;87.19
48630;BME280;34426;52.180;4.462;2023-04-27T05:10:48;102237.63;;;3.26;86.98
48630;BME280;34426;52.180;4.462;2023-04-27T05:13:14;102234.13;;;3.32;85.80
48630;BME280;34426;52.180;4.462;2023-04-27T05:15:39;102234.75;;;3.43;85.08
48630;BME280;34426;52.180;4.462;2023-04-27T05:18:05;102229.69;;;3.46;84.12
48630;BME280;34426;52.180;4.462;2023-04-27T05:20:33;102234.94;;;3.56;84.26
48630;BME280;34426;52.180;4.462;2023-04-27T05:23:00;102236.47;;;3.58;84.33
48630;BME280;34426;52.180;4.462;2023-04-27T05:25:29;102231.41;;;3.62;84.46
48630;BME280;34426;52.180;4.462;2023-04-27T05:27:56;102228.56;;;3.70;82.67
48630;BME280;34426;52.180;4.462;2023-04-27T05:30:25;102228.31;;;3.80;82.47
48630;BME280;34426;52.180;4.462;2023-04-27T05:32:50;102234.13;;;3.85;82.66
48630;BME280;34426;52.180;4.462;2023-04-27T05:35:21;102227.34;;;3.87;81.70
48630;BME280;34426;52.180;4.462;2023-04-27T05:37:46;102234.50;;;3.96;82.25
48630;BME280;34426;52.180;4.462;2023-04-27T05:40:14;102227.53;;;4.00;82.04
48630;BME280;34426;52.180;4.462;2023-04-27T05:42:39;102228.00;;;4.04;81.82
48630;BME280;34426;52.180;4.462;2023-04-27T05:45:06;102229.16;;;4.10;81.46
48630;BME280;34426;52.180;4.462;2023-04-27T05:47:32;102239.06;;;4.19;80.54
48630;BME280;34426;52.180;4.462;2023-04-27T05:49:57;102226.94;;;4.20;80.92
48630;BME280;34426;52.180;4.462;2023-04-27T05:52:23;102234.88;;;4.23;80.68
48630;BME280;34426;52.180;4.462;2023-04-27T05:54:49;102234.69;;;4.24;80.58
48630;BME280;34426;52.180;4.462;2023-04-27T05:57:16;102233.91;;;4.30;80.96
48630;BME280;34426;52.180;4.462;2023-04-27T05:59:42;102238.22;;;4.33;81.15
48630;BME280;34426;52.180;4.462;2023-04-27T06:02:07;102243.94;;;4.31;80.86
48630;BME280;34426;52.180;4.462;2023-04-27T06:04:33;102243.69;;;4.62;78.12
48630;BME280;34426;52.180;4.462;2023-04-27T06:06:59;102241.09;;;4.61;78.60
48630;BME280;34426;52.180;4.462;2023-04-27T06:09:25;102246.66;;;4.82;75.94
48630;BME280;34426;52.180;4.462;2023-04-27T06:11:51;102244.25;;;4.94;76.45
48630;BME280;34426;52.180;4.462;2023-04-27T06:14:17;102245.31;;;4.93;76.04
48630;BME280;34426;52.180;4.462;2023-04-27T06:16:43;102248.88;;;5.08;76.42
48630;BME280;34426;52.180;4.462;2023-04-27T06:19:09;102246.97;;;5.09;75.37
48630;BME280;34426;52.180;4.462;2023-04-27T06:21:35;102246.78;;;5.10;75.85
48630;BME280;34426;52.180;4.462;2023-04-27T06:24:00;102246.22;;;5.21;75.20
48630;BME280;34426;52.180;4.462;2023-04-27T06:26:26;102239.09;;;5.33;74.42
48630;BME280;34426;52.180;4.462;2023-04-27T06:28:53;102244.44;;;5.35;75.28
48630;BME280;34426;52.180;4.462;2023-04-27T06:31:20;102235.44;;;5.54;72.43
48630;BME280;34426;52.180;4.462;2023-04-27T06:33:46;102239.72;;;5.57;71.89
48630;BME280;34426;52.180;4.462;2023-04-27T06:36:12;102244.03;;;5.59;73.18
48630;BME280;34426;52.180;4.462;2023-04-27T06:38:37;102239.34;;;5.66;72.22
48630;BME280;34426;52.180;4.462;2023-04-27T06:41:03;102239.00;;;5.76;71.99
48630;BME280;34426;52.180;4.462;2023-04-27T06:43:30;102232.78;;;5.74;71.62
48630;BME280;34426;52.180;4.462;2023-04-27T06:45:55;102240.56;;;5.85;70.46
48630;BME280;34426;52.180;4.462;2023-04-27T06:48:22;102232.91;;;5.87;70.94
48630;BME280;34426;52.180;4.462;2023-04-27T06:50:47;102244.84;;;5.88;69.41
48630;BME280;34426;52.180;4.462;2023-04-27T06:53:13;102247.56;;;6.03;69.27
48630;BME280;34426;52.180;4.462;2023-04-27T06:55:39;102248.44;;;6.10;68.62
48630;BME280;34426;52.180;4.462;2023-04-27T06:58:05;102250.59;;;6.14;69.40
48630;BME280;34426;52.180;4.462;2023-04-27T07:00:30;102248.84;;;6.07;69.99
48630;BME280;34426;52.180;4.462;2023-04-27T07:02:56;102245.91;;;6.15;69.48
48630;BME280;34426;52.180;4.462;2023-04-27T07:05:23;102237.50;;;6.36;68.36
48630;BME280;34426;52.180;4.462;2023-04-27T07:07:49;102245.22;;;6.41;67.14
48630;BME280;34426;52.180;4.462;2023-04-27T07:10:14;102231.56;;;6.52;67.65
48630;BME280;34426;52.180;4.462;2023-04-27T07:12:41;102243.16;;;6.62;68.97
48630;BME280;34426;52.180;4.462;2023-04-27T07:15:07;102244.91;;;6.77;66.14
48630;BME280;34426;52.180;4.462;2023-04-27T07:17:36;102242.34;;;6.75;67.10
48630;BME280;34426;52.180;4.462;2023-04-27T07:20:02;102235.09;;;6.81;67.58
48630;BME280;34426;52.180;4.462;2023-04-27T07:22:30;102232.97;;;6.83;66.10
48630;BME280;34426;52.180;4.462;2023-04-27T07:24:55;102240.25;;;6.90;65.74
48630;BME280;34426;52.180;4.462;2023-04-27T07:27:21;102228.47;;;6.95;67.13
48630;BME280;34426;52.180;4.462;2023-04-27T07:29:47;102235.97;;;7.01;64.81
48630;BME280;34426;52.180;4.462;2023-04-27T07:32:12;102244.13;;;7.09;63.86
48630;BME280;34426;52.180;4.462;2023-04-27T07:34:38;102246.72;;;7.17;62.54
48630;BME280;34426;52.180;4.462;2023-04-27T07:37:06;102248.44;;;7.18;63.50
48630;BME280;34426;52.180;4.462;2023-04-27T07:39:33;102251.91;;;7.33;63.02
48630;BME280;34426;52.180;4.462;2023-04-27T07:41:59;102245.03;;;7.43;63.76
48630;BME280;34426;52.180;4.462;2023-04-27T07:44:24;102239.25;;;7.51;64.25
48630;BME280;34426;52.180;4.462;2023-04-27T07:46:50;102237.97;;;7.66;64.77
48630;BME280;34426;52.180;4.462;2023-04-27T07:49:15;102230.00;;;7.83;63.69
48630;BME280;34426;52.180;4.462;2023-04-27T07:51:41;102230.22;;;7.88;63.43
48630;BME280;34426;52.180;4.462;2023-04-27T07:54:06;102232.56;;;8.05;63.80
48630;BME280;34426;52.180;4.462;2023-04-27T07:56:33;102229.75;;;8.11;64.11
48630;BME280;34426;52.180;4.462;2023-04-27T07:58:59;102233.81;;;8.22;63.05
48630;BME280;34426;52.180;4.462;2023-04-27T08:01:26;102234.63;;;8.29;63.14
48630;BME280;34426;52.180;4.462;2023-04-27T08:03:52;102237.00;;;8.39;62.52
48630;BME280;34426;52.180;4.462;2023-04-27T08:06:17;102226.44;;;8.47;61.69
48630;BME280;34426;52.180;4.462;2023-04-27T08:08:43;102222.59;;;8.48;62.52
48630;BME280;34426;52.180;4.462;2023-04-27T08:11:09;102220.38;;;8.63;61.35
48630;BME280;34426;52.180;4.462;2023-04-27T08:13:36;102220.75;;;8.74;61.06
48630;BME280;34426;52.180;4.462;2023-04-27T08:16:02;102216.38;;;8.91;60.47
48630;BME280;34426;52.180;4.462;2023-04-27T08:18:27;102221.06;;;8.97;61.13
48630;BME280;34426;52.180;4.462;2023-04-27T08:20:53;102220.03;;;8.85;61.08
48630;BME280;34426;52.180;4.462;2023-04-27T08:23:19;102219.78;;;8.93;58.61
48630;BME280;34426;52.180;4.462;2023-04-27T08:25:45;102219.31;;;9.03;58.49
48630;BME280;34426;52.180;4.462;2023-04-27T08:28:11;102217.16;;;9.05;58.55
48630;BME280;34426;52.180;4.462;2023-04-27T08:30:40;102215.94;;;9.19;58.69
48630;BME280;34426;52.180;4.462;2023-04-27T08:33:06;102221.75;;;9.17;58.11
48630;BME280;34426;52.180;4.462;2023-04-27T08:35:31;102211.84;;;9.21;58.93
48630;BME280;34426;52.180;4.462;2023-04-27T08:37:57;102215.63;;;9.33;59.42
48630;BME280;34426;52.180;4.462;2023-04-27T08:40:22;102218.97;;;9.49;58.25
48630;BME280;34426;52.180;4.462;2023-04-27T08:42:55;102213.69;;;9.59;59.23
48630;BME280;34426;52.180;4.462;2023-04-27T08:45:21;102212.91;;;9.77;56.83
48630;BME280;34426;52.180;4.462;2023-04-27T08:47:49;102211.59;;;9.79;57.52
48630;BME280;34426;52.180;4.462;2023-04-27T08:50:14;102215.75;;;9.70;53.04
48630;BME280;34426;52.180;4.462;2023-04-27T08:52:43;102214.22;;;9.74;53.10
48630;BME280;34426;52.180;4.462;2023-04-27T08:55:12;102211.34;;;9.56;53.60
48630;BME280;34426;52.180;4.462;2023-04-27T08:57:37;102216.66;;;9.64;55.10
48630;BME280;34426;52.180;4.462;2023-04-27T09:00:04;102210.38;;;9.68;53.69
48630;BME280;34426;52.180;4.462;2023-04-27T09:02:31;102209.53;;;9.68;53.17
48630;BME280;34426;52.180;4.462;2023-04-27T09:04:57;102210.03;;;9.83;54.48
48630;BME280;34426;52.180;4.462;2023-04-27T09:07:23;102212.22;;;9.81;55.76
48630;BME280;34426;52.180;4.462;2023-04-27T09:09:49;102212.09;;;9.94;53.29
48630;BME280;34426;52.180;4.462;2023-04-27T09:12:15;102205.09;;;10.04;55.45
48630;BME280;34426;52.180;4.462;2023-04-27T09:14:41;102206.03;;;10.16;55.66
48630;BME280;34426;52.180;4.462;2023-04-27T09:17:07;102202.91;;;10.30;54.75
48630;BME280;34426;52.180;4.462;2023-04-27T09:19:33;102205.63;;;10.37;53.83
48630;BME280;34426;52.180;4.462;2023-04-27T09:22:05;102197.34;;;10.42;51.08
48630;BME280;34426;52.180;4.462;2023-04-27T09:24:31;102201.72;;;10.38;51.40
48630;BME280;34426;52.180;4.462;2023-04-27T09:26:56;102199.22;;;10.48;51.59
48630;BME280;34426;52.180;4.462;2023-04-27T09:29:31;102193.00;;;10.46;49.69
48630;BME280;34426;52.180;4.462;2023-04-27T09:31:56;102203.25;;;10.52;51.05
48630;BME280;34426;52.180;4.462;2023-04-27T09:34:22;102210.25;;;10.61;49.08
48630;BME280;34426;52.180;4.462;2023-04-27T09:36:47;102210.53;;;10.72;50.67
48630;BME280;34426;52.180;4.462;2023-04-27T09:39:15;102205.25;;;10.82;47.40
48630;BME280;34426;52.180;4.462;2023-04-27T09:41:40;102204.25;;;10.76;49.74
48630;BME280;34426;52.180;4.462;2023-04-27T09:44:06;102215.69;;;10.86;50.30
48630;BME280;34426;52.180;4.462;2023-04-27T09:46:32;102214.19;;;11.02;51.63
48630;BME280;34426;52.180;4.462;2023-04-27T09:48:58;102199.91;;;11.33;50.37
48630;BME280;34426;52.180;4.462;2023-04-27T09:51:24;102198.44;;;11.19;48.42
48630;BME280;34426;52.180;4.462;2023-04-27T09:53:52;102199.91;;;11.22;49.41
48630;BME280;34426;52.180;4.462;2023-04-27T09:56:28;102194.84;;;11.54;48.10
48630;BME280;34426;52.180;4.462;2023-04-27T09:59:09;102204.78;;;11.38;46.51
48630;BME280;34426;52.180;4.462;2023-04-27T10:01:40;102195.78;;;11.36;47.04
48630;BME280;34426;52.180;4.462;2023-04-27T10:04:43;102203.38;;;11.59;47.38
48630;BME280;34426;52.180;4.462;2023-04-27T10:07:10;102204.50;;;11.70;47.31
48630;BME280;34426;52.180;4.462;2023-04-27T10:09:39;102211.56;;;11.84;45.12
48630;BME280;34426;52.180;4.462;2023-04-27T10:12:17;102204.41;;;11.99;45.28
48630;BME280;34426;52.180;4.462;2023-04-27T10:14:53;102198.06;;;11.92;44.54
48630;BME280;34426;52.180;4.462;2023-04-27T10:17:23;102209.72;;;11.66;44.18
48630;BME280;34426;52.180;4.462;2023-04-27T10:19:55;102197.66;;;11.65;44.67
48630;BME280;34426;52.180;4.462;2023-04-27T10:22:21;102196.19;;;11.75;45.26
48630;BME280;34426;52.180;4.462;2023-04-27T10:24:48;102197.31;;;11.85;43.04
48630;BME280;34426;52.180;4.462;2023-04-27T10:27:19;102199.16;;;11.91;42.08
48630;BME280;34426;52.180;4.462;2023-04-27T10:29:45;102190.00;;;11.84;44.93
48630;BME280;34426;52.180;4.462;2023-04-27T10:32:13;102192.06;;;11.77;46.90
48630;BME280;34426;52.180;4.462;2023-04-27T10:34:43;102188.78;;;12.04;47.43
48630;BME280;34426;52.180;4.462;2023-04-27T10:37:10;102186.47;;;12.12;44.78
48630;BME280;34426;52.180;4.462;2023-04-27T10:39:37;102189.22;;;12.24;46.04
48630;BME280;34426;52.180;4.462;2023-04-27T10:42:03;102187.28;;;12.24;42.02
48630;BME280;34426;52.180;4.462;2023-04-27T10:44:32;102180.19;;;12.22;39.70
48630;BME280;34426;52.180;4.462;2023-04-27T10:47:00;102179.97;;;12.23;41.55
48630;BME280;34426;52.180;4.462;2023-04-27T10:49:26;102178.81;;;12.48;42.32
48630;BME280;34426;52.180;4.462;2023-04-27T10:51:52;102175.19;;;12.36;39.38
48630;BME280;34426;52.180;4.462;2023-04-27T10:54:17;102172.97;;;12.49;42.10
48630;BME280;34426;52.180;4.462;2023-04-27T10:56:43;102167.59;;;12.48;42.39
48630;BME280;34426;52.180;4.462;2023-04-27T10:59:09;102169.47;;;12.59;42.77
48630;BME280;34426;52.180;4.462;2023-04-27T11:01:36;102165.19;;;12.68;45.85
48630;BME280;34426;52.180;4.462;2023-04-27T11:04:02;102160.53;;;12.74;45.63
48630;BME280;34426;52.180;4.462;2023-04-27T11:06:28;102163.13;;;12.92;44.08
48630;BME280;34426;52.180;4.462;2023-04-27T11:08:54;102160.44;;;12.97;44.24
48630;BME280;34426;52.180;4.462;2023-04-27T11:11:19;102148.66;;;13.00;43.29
48630;BME280;34426;52.180;4.462;2023-04-27T11:13:47;102153.78;;;13.03;44.06
48630;BME280;34426;52.180;4.462;2023-04-27T11:16:14;102151.75;;;13.15;42.28
48630;BME280;34426;52.180;4.462;2023-04-27T11:18:41;102141.50;;;13.21;41.75
48630;BME280;34426;52.180;4.462;2023-04-27T11:21:08;102143.22;;;13.39;41.79
48630;BME280;34426;52.180;4.462;2023-04-27T11:23:33;102143.03;;;13.62;38.13
48630;BME280;34426;52.180;4.462;2023-04-27T11:26:08;102132.69;;;13.84;37.31
48630;BME280;34426;52.180;4.462;2023-04-27T11:28:33;102128.44;;;13.82;41.00
48630;BME280;34426;52.180;4.462;2023-04-27T11:30:59;102133.06;;;13.93;40.22
48630;BME280;34426;52.180;4.462;2023-04-27T11:33:25;102134.91;;;13.82;40.08
48630;BME280;34426;52.180;4.462;2023-04-27T11:35:52;102128.44;;;13.65;40.52
48630;BME280;34426;52.180;4.462;2023-04-27T11:38:18;102120.09;;;13.70;41.49
48630;BME280;34426;52.180;4.462;2023-04-27T11:40:43;102133.97;;;13.77;39.24
48630;BME280;34426;52.180;4.462;2023-04-27T11:43:11;102128.78;;;13.52;39.75
48630;BME280;34426;52.180;4.462;2023-04-27T11:45:40;102127.94;;;13.68;40.38
48630;BME280;34426;52.180;4.462;2023-04-27T11:48:06;102123.16;;;13.85;40.56
48630;BME280;34426;52.180;4.462;2023-04-27T11:50:37;102125.50;;;13.93;39.18
48630;BME280;34426;52.180;4.462;2023-04-27T11:53:04;102128.13;;;14.00;38.71
48630;BME280;34426;52.180;4.462;2023-04-27T11:55:34;102133.31;;;14.08;39.06
48630;BME280;34426;52.180;4.462;2023-04-27T11:57:59;102135.47;;;14.23;39.94
48630;BME280;34426;52.180;4.462;2023-04-27T12:00:25;102125.50;;;14.37;39.66
48630;BME280;34426;52.180;4.462;2023-04-27T12:02:50;102122.16;;;14.40;38.86
48630;BME280;34426;52.180;4.462;2023-04-27T12:05:16;102109.81;;;14.63;38.98
48630;BME280;34426;52.180;4.462;2023-04-27T12:07:41;102112.69;;;14.68;39.71
48630;BME280;34426;52.180;4.462;2023-04-27T12:10:09;102117.81;;;14.49;39.06
48630;BME280;34426;52.180;4.462;2023-04-27T12:12:34;102114.81;;;14.56;38.55
48630;BME280;34426;52.180;4.462;2023-04-27T12:15:00;102112.34;;;14.91;36.58
48630;BME280;34426;52.180;4.462;2023-04-27T12:17:25;102122.41;;;15.09;37.25
48630;BME280;34426;52.180;4.462;2023-04-27T12:19:51;102114.03;;;15.19;36.93
48630;BME280;34426;52.180;4.462;2023-04-27T12:22:16;102108.03;;;15.11;35.49
48630;BME280;34426;52.180;4.462;2023-04-27T12:24:42;102111.44;;;14.86;37.82
48630;BME280;34426;52.180;4.462;2023-04-27T12:27:10;102108.38;;;15.14;37.08
48630;BME280;34426;52.180;4.462;2023-04-27T12:29:36;102101.28;;;15.44;36.46
48630;BME280;34426;52.180;4.462;2023-04-27T12:32:01;102094.28;;;15.51;36.66
48630;BME280;34426;52.180;4.462;2023-04-27T12:34:27;102099.94;;;15.19;35.69
48630;BME280;34426;52.180;4.462;2023-04-27T12:36:52;102101.72;;;15.30;36.77
48630;BME280;34426;52.180;4.462;2023-04-27T12:39:19;102098.06;;;14.98;37.57
48630;BME280;34426;52.180;4.462;2023-04-27T12:41:46;102103.09;;;15.28;37.02
48630;BME280;34426;52.180;4.462;2023-04-27T12:44:13;102093.00;;;15.32;35.77
48630;BME280;34426;52.180;4.462;2023-04-27T12:46:39;102085.44;;;15.75;35.94
48630;BME280;34426;52.180;4.462;2023-04-27T12:49:04;102077.38;;;15.93;34.70
48630;BME280;34426;52.180;4.462;2023-04-27T12:51:30;102087.13;;;16.33;34.81
48630;BME280;34426;52.180;4.462;2023-04-27T12:53:55;102079.16;;;16.15;30.72